Yingkou, China
Current Conditions -  °F | °C
As of 4:30 AM on Friday 19 Dec 2014 (Local Time) from ZYTX Reporting Station
Clear Clear  
Wind Chill: 21°   Ceiling: Unl
Heat Index: 30°   Visibility: 6mi
Dew Point: 19°   Wind: 11mph
Humidity: 64%   Direction: 150°SSE
Pressure: 30.15"   Gusts: NA
Location:  40.67°N, 122.28°E
Report Text: ZYTX 182030Z 15005MPS CAVOK M01/M07 Q1021 NOSIG
Loading
Personal Weather Stations






























Interactive Weather Map New forecast layout! Learn more

10-Day Weather Forecast

Advertisements
Track Severe Weather on mobile